SCIPFMMI

Guest
Details From SCIP - Mataveri Intl
To FMMI - Ivato
Flight Number -
Tags Generated
Created
Modified
Stats Distance 7,741 nm / 14,336 km
Max Altitude 0 ft / 0 m
Waypoints 4
Social Downloads 0
Likes 0
Share VATSIM

Download

Looking for another format? Having issues loading an existing format? Contact us
Advertisement - Login to hide

Notes

Generated

Route

SCIP IRJ IA FMMI

ID Type Via Altitude Latitude Longitude Leg Dist Tot Dist Heading (true) Name
O SCIP APT - 0 ft / 0 m -27.15796˚ -109.43667˚ - 0 nm - -
IRJ NDB - 0 ft / 0 m -62.19944˚ -58.96139˚ 2888 nm 2888 nm 151° / 113° ISLA REY JORGE NDB
IA NDB - 0 ft / 0 m -18.79336˚ 47.45492˚ 4851 nm 7740 nm 113° / 27° ANTANANARIVO IVATO NDB
O FMMI APT - 0 ft / 0 m -18.79479˚ 47.46427˚ 0 nm 7740 nm 99° / 99° -

Altitude Profile

Advertisement - Login to hide

Weather


0- 5 10 15 20 25 30 35+ Temperature / ° C

Clouds and Precipitation
Forecast for 2018-05-21 18:00 UTC. Updated an hour ago

Ground ~20,000 ft ~40,000 ft Winds

SCIP

Details ICAO SCIP (IPC)
Name Mataveri Intl
Region Chile
Timezone Pacific/Easter (UTC-6.0)
Stats Elevation 227 ft / 69 m (AMSL)
Location -27.164790° -109.421829°
Runways 1
Magnetic Variation 15.089° E

METAR

SCIP 211800Z 19006KT 9999 SCT025 21/10 Q1019 NOSIG

Decode

TAF

TAF SCIP 211631Z 2118/2218 17008KT 9999 SCT020 BKN050 TX23/2120Z TN16 /2207Z TEMPO 2120/2200 20013KT 7000 -SHRA BKN020 BECMG 2203/2205 10005KT TEMPO 2209/2211 30008KT 7000 -SHRA BKN020 BECMG 2213/2215 33010KT SCT020 SCT040 TEMPO 2216/2218 33015KT 6000 -SHRA BKN018

Decode

Departure Runways

ID Width Length Bearing (true) Bearing (mag) Surface Threshold Offset Overrun Length
10 145 ft / 44 m 10,848 ft / 3,306 m 117.35° 102.26° Asphalt 0 ft / 0 m 355 ft / 108 m
28 145 ft / 44 m 10,848 ft / 3,306 m 297.33° 282.24° Asphalt 0 ft / 0 m 95 ft / 29 m

FMMI

Details ICAO FMMI (TNR)
Name IVATO
Region Comoros, Mayotte, Réunion and Madagascar
Timezone Indian/Antananarivo (UTC+3.0)
Stats Elevation 4,198 ft / 1,280 m (AMSL)
Location -18.796950° 47.478806°
Runways 1
Magnetic Variation 15.172° W

METAR

FMMI 211830Z 17004KT 120V200 9999 FEW020 12/10 Q1024 NOSIG

Decode

TAF

FMMI 211700Z 2118/2224 12007KT 9999 FEW017 BKN020

Decode

Destination Runways

ID Width Length Bearing (true) Bearing (mag) Surface Threshold Offset Overrun Length
11 148 ft / 45 m 10,167 ft / 3,099 m 98.92° 114.09° Asphalt 0 ft / 0 m 90 ft / 27 m
29 148 ft / 45 m 10,167 ft / 3,099 m 278.91° 294.08° Asphalt 0 ft / 0 m 90 ft / 27 m

Approach Navaids

Runway Type Ident Frequency Range Bearing (true) Bearing (mag) Slope Elevation
11 Localiser IO 109.50 MHz 18 nm / 33 km 98.89° 114.06° - 4,125 ft / 1,257 m (AMSL)
11 Glidescope IO 109.50 MHz 10 nm / 19 km 98.91° 114.08° 3.00° 4,198 ft / 1,280 m (AMSL)